sensor_id;sensor_type;location;lat;lon;timestamp;P1;durP1;ratioP1;P2;durP2;ratioP2
74170;SDS011;62526;50.948;6.590;2024-01-30T00:01:45;18.07;;;8.63;;
74170;SDS011;62526;50.948;6.590;2024-01-30T00:04:12;12.73;;;7.80;;
74170;SDS011;62526;50.948;6.590;2024-01-30T00:06:39;10.80;;;7.10;;
74170;SDS011;62526;50.948;6.590;2024-01-30T00:09:05;13.33;;;7.77;;
74170;SDS011;62526;50.948;6.590;2024-01-30T00:11:33;13.63;;;8.47;;
74170;SDS011;62526;50.948;6.590;2024-01-30T00:13:59;15.23;;;8.03;;
74170;SDS011;62526;50.948;6.590;2024-01-30T00:16:26;12.77;;;8.37;;
74170;SDS011;62526;50.948;6.590;2024-01-30T00:18:53;12.77;;;8.70;;
74170;SDS011;62526;50.948;6.590;2024-01-30T00:21:20;13.90;;;8.83;;
74170;SDS011;62526;50.948;6.590;2024-01-30T00:23:46;13.37;;;7.73;;
74170;SDS011;62526;50.948;6.590;2024-01-30T00:26:14;13.20;;;7.83;;
74170;SDS011;62526;50.948;6.590;2024-01-30T00:28:41;12.70;;;7.83;;
74170;SDS011;62526;50.948;6.590;2024-01-30T00:31:08;14.63;;;7.77;;
74170;SDS011;62526;50.948;6.590;2024-01-30T00:33:38;12.73;;;8.00;;
74170;SDS011;62526;50.948;6.590;2024-01-30T00:36:06;13.57;;;7.73;;
74170;SDS011;62526;50.948;6.590;2024-01-30T00:38:33;11.73;;;7.63;;
74170;SDS011;62526;50.948;6.590;2024-01-30T00:41:00;15.27;;;7.93;;
74170;SDS011;62526;50.948;6.590;2024-01-30T00:43:26;13.27;;;8.77;;
74170;SDS011;62526;50.948;6.590;2024-01-30T00:45:53;13.23;;;7.90;;
74170;SDS011;62526;50.948;6.590;2024-01-30T00:48:20;17.73;;;7.77;;
74170;SDS011;62526;50.948;6.590;2024-01-30T00:50:47;15.37;;;8.27;;
74170;SDS011;62526;50.948;6.590;2024-01-30T00:53:14;14.73;;;8.10;;
74170;SDS011;62526;50.948;6.590;2024-01-30T00:55:41;11.57;;;8.00;;
74170;SDS011;62526;50.948;6.590;2024-01-30T00:58:08;12.60;;;7.70;;
74170;SDS011;62526;50.948;6.590;2024-01-30T01:00:36;14.50;;;8.03;;
74170;SDS011;62526;50.948;6.590;2024-01-30T01:03:03;12.03;;;7.50;;
74170;SDS011;62526;50.948;6.590;2024-01-30T01:05:30;12.50;;;8.17;;
74170;SDS011;62526;50.948;6.590;2024-01-30T01:07:57;11.37;;;7.23;;
74170;SDS011;62526;50.948;6.590;2024-01-30T01:10:25;14.13;;;8.43;;
74170;SDS011;62526;50.948;6.590;2024-01-30T01:12:52;13.73;;;8.43;;
74170;SDS011;62526;50.948;6.590;2024-01-30T01:15:19;15.60;;;8.30;;
74170;SDS011;62526;50.948;6.590;2024-01-30T01:17:46;12.73;;;8.03;;
74170;SDS011;62526;50.948;6.590;2024-01-30T01:20:13;16.67;;;8.53;;
74170;SDS011;62526;50.948;6.590;2024-01-30T01:22:40;17.57;;;7.50;;
74170;SDS011;62526;50.948;6.590;2024-01-30T01:25:07;11.67;;;7.90;;
74170;SDS011;62526;50.948;6.590;2024-01-30T01:27:33;15.17;;;8.00;;
74170;SDS011;62526;50.948;6.590;2024-01-30T01:30:00;11.53;;;7.27;;
74170;SDS011;62526;50.948;6.590;2024-01-30T01:32:27;11.43;;;7.00;;
74170;SDS011;62526;50.948;6.590;2024-01-30T01:34:54;11.47;;;7.50;;
74170;SDS011;62526;50.948;6.590;2024-01-30T01:37:21;13.30;;;7.67;;
74170;SDS011;62526;50.948;6.590;2024-01-30T01:39:48;13.27;;;7.57;;
74170;SDS011;62526;50.948;6.590;2024-01-30T01:42:15;13.33;;;8.40;;
74170;SDS011;62526;50.948;6.590;2024-01-30T01:44:42;16.57;;;8.43;;
74170;SDS011;62526;50.948;6.590;2024-01-30T01:47:09;11.73;;;7.33;;
74170;SDS011;62526;50.948;6.590;2024-01-30T01:49:36;12.37;;;7.93;;
74170;SDS011;62526;50.948;6.590;2024-01-30T01:52:03;10.83;;;7.53;;
74170;SDS011;62526;50.948;6.590;2024-01-30T01:54:31;10.23;;;6.10;;
74170;SDS011;62526;50.948;6.590;2024-01-30T01:56:59;11.60;;;7.50;;
74170;SDS011;62526;50.948;6.590;2024-01-30T01:59:25;11.20;;;7.17;;
74170;SDS011;62526;50.948;6.590;2024-01-30T02:01:52;18.33;;;8.03;;
74170;SDS011;62526;50.948;6.590;2024-01-30T02:04:19;21.47;;;13.70;;
74170;SDS011;62526;50.948;6.590;2024-01-30T02:06:46;11.13;;;7.23;;
74170;SDS011;62526;50.948;6.590;2024-01-30T02:09:13;14.00;;;8.00;;
74170;SDS011;62526;50.948;6.590;2024-01-30T02:11:40;17.27;;;7.73;;
74170;SDS011;62526;50.948;6.590;2024-01-30T02:14:06;11.83;;;7.50;;
74170;SDS011;62526;50.948;6.590;2024-01-30T02:16:34;13.37;;;7.60;;
74170;SDS011;62526;50.948;6.590;2024-01-30T02:19:00;13.63;;;7.67;;
74170;SDS011;62526;50.948;6.590;2024-01-30T02:21:27;9.70;;;7.10;;
74170;SDS011;62526;50.948;6.590;2024-01-30T02:23:54;14.90;;;7.57;;
74170;SDS011;62526;50.948;6.590;2024-01-30T02:26:22;11.87;;;7.77;;
74170;SDS011;62526;50.948;6.590;2024-01-30T02:28:49;12.53;;;8.23;;
74170;SDS011;62526;50.948;6.590;2024-01-30T02:31:16;13.63;;;7.00;;
74170;SDS011;62526;50.948;6.590;2024-01-30T02:33:43;13.77;;;7.57;;
74170;SDS011;62526;50.948;6.590;2024-01-30T02:36:10;11.17;;;7.70;;
74170;SDS011;62526;50.948;6.590;2024-01-30T02:38:36;11.33;;;7.77;;
74170;SDS011;62526;50.948;6.590;2024-01-30T02:41:04;13.27;;;6.83;;
74170;SDS011;62526;50.948;6.590;2024-01-30T02:43:30;15.00;;;7.43;;
74170;SDS011;62526;50.948;6.590;2024-01-30T02:45:57;15.17;;;7.80;;
74170;SDS011;62526;50.948;6.590;2024-01-30T02:48:24;11.70;;;7.17;;
74170;SDS011;62526;50.948;6.590;2024-01-30T02:50:51;15.47;;;8.50;;
74170;SDS011;62526;50.948;6.590;2024-01-30T02:53:18;14.43;;;7.90;;
74170;SDS011;62526;50.948;6.590;2024-01-30T02:55:45;11.27;;;7.37;;
74170;SDS011;62526;50.948;6.590;2024-01-30T02:58:12;11.93;;;7.60;;
74170;SDS011;62526;50.948;6.590;2024-01-30T03:00:39;12.50;;;7.67;;
74170;SDS011;62526;50.948;6.590;2024-01-30T03:03:06;12.93;;;7.17;;
74170;SDS011;62526;50.948;6.590;2024-01-30T03:05:33;11.53;;;7.27;;
74170;SDS011;62526;50.948;6.590;2024-01-30T03:08:00;14.27;;;7.57;;
74170;SDS011;62526;50.948;6.590;2024-01-30T03:10:27;13.87;;;8.23;;
74170;SDS011;62526;50.948;6.590;2024-01-30T03:12:54;13.23;;;7.97;;
74170;SDS011;62526;50.948;6.590;2024-01-30T03:15:21;12.60;;;8.00;;
74170;SDS011;62526;50.948;6.590;2024-01-30T03:17:48;13.03;;;7.47;;
74170;SDS011;62526;50.948;6.590;2024-01-30T03:20:15;10.93;;;7.50;;
74170;SDS011;62526;50.948;6.590;2024-01-30T03:22:43;12.60;;;7.57;;
74170;SDS011;62526;50.948;6.590;2024-01-30T03:25:10;14.97;;;8.40;;
74170;SDS011;62526;50.948;6.590;2024-01-30T03:27:37;14.37;;;8.23;;
74170;SDS011;62526;50.948;6.590;2024-01-30T03:30:04;10.63;;;7.27;;
74170;SDS011;62526;50.948;6.590;2024-01-30T03:32:31;13.23;;;7.00;;
74170;SDS011;62526;50.948;6.590;2024-01-30T03:34:59;13.37;;;7.67;;
74170;SDS011;62526;50.948;6.590;2024-01-30T03:37:25;10.37;;;7.53;;
74170;SDS011;62526;50.948;6.590;2024-01-30T03:39:53;18.20;;;8.30;;
74170;SDS011;62526;50.948;6.590;2024-01-30T03:42:20;12.50;;;7.03;;
74170;SDS011;62526;50.948;6.590;2024-01-30T03:44:47;13.60;;;7.93;;
74170;SDS011;62526;50.948;6.590;2024-01-30T03:47:14;10.53;;;7.07;;
74170;SDS011;62526;50.948;6.590;2024-01-30T03:49:41;12.93;;;7.47;;
74170;SDS011;62526;50.948;6.590;2024-01-30T03:52:08;12.03;;;7.80;;
74170;SDS011;62526;50.948;6.590;2024-01-30T03:54:34;12.87;;;7.53;;
74170;SDS011;62526;50.948;6.590;2024-01-30T03:57:03;13.87;;;7.50;;
74170;SDS011;62526;50.948;6.590;2024-01-30T03:59:30;15.17;;;7.00;;
74170;SDS011;62526;50.948;6.590;2024-01-30T04:01:57;12.13;;;7.50;;
74170;SDS011;62526;50.948;6.590;2024-01-30T04:04:23;10.13;;;7.40;;
74170;SDS011;62526;50.948;6.590;2024-01-30T04:06:50;12.33;;;7.00;;
74170;SDS011;62526;50.948;6.590;2024-01-30T04:09:17;13.00;;;7.30;;
74170;SDS011;62526;50.948;6.590;2024-01-30T04:11:44;9.30;;;6.47;;
74170;SDS011;62526;50.948;6.590;2024-01-30T04:14:12;11.37;;;6.90;;
74170;SDS011;62526;50.948;6.590;2024-01-30T04:16:38;10.80;;;7.17;;
74170;SDS011;62526;50.948;6.590;2024-01-30T04:19:05;11.17;;;6.90;;
74170;SDS011;62526;50.948;6.590;2024-01-30T04:21:32;11.80;;;7.30;;
74170;SDS011;62526;50.948;6.590;2024-01-30T04:23:58;18.20;;;8.00;;
74170;SDS011;62526;50.948;6.590;2024-01-30T04:26:25;11.53;;;7.30;;
74170;SDS011;62526;50.948;6.590;2024-01-30T04:28:52;10.07;;;6.73;;
74170;SDS011;62526;50.948;6.590;2024-01-30T04:31:19;10.87;;;7.60;;
74170;SDS011;62526;50.948;6.590;2024-01-30T04:33:46;11.53;;;6.73;;
74170;SDS011;62526;50.948;6.590;2024-01-30T04:36:13;12.00;;;7.30;;
74170;SDS011;62526;50.948;6.590;2024-01-30T04:38:40;15.90;;;6.90;;
74170;SDS011;62526;50.948;6.590;2024-01-30T04:41:06;10.43;;;7.07;;
74170;SDS011;62526;50.948;6.590;2024-01-30T04:43:34;9.20;;;7.47;;
74170;SDS011;62526;50.948;6.590;2024-01-30T04:46:00;14.27;;;7.57;;
74170;SDS011;62526;50.948;6.590;2024-01-30T04:48:28;15.60;;;7.40;;
74170;SDS011;62526;50.948;6.590;2024-01-30T04:50:55;9.97;;;6.73;;
74170;SDS011;62526;50.948;6.590;2024-01-30T04:53:22;10.83;;;7.53;;
74170;SDS011;62526;50.948;6.590;2024-01-30T04:55:49;13.73;;;6.97;;
74170;SDS011;62526;50.948;6.590;2024-01-30T04:58:16;12.63;;;7.60;;
74170;SDS011;62526;50.948;6.590;2024-01-30T05:00:43;11.17;;;7.40;;
74170;SDS011;62526;50.948;6.590;2024-01-30T05:03:10;16.37;;;7.10;;
74170;SDS011;62526;50.948;6.590;2024-01-30T05:05:37;12.30;;;7.07;;
74170;SDS011;62526;50.948;6.590;2024-01-30T05:08:04;12.83;;;7.00;;
74170;SDS011;62526;50.948;6.590;2024-01-30T05:10:31;13.77;;;7.57;;
74170;SDS011;62526;50.948;6.590;2024-01-30T05:12:57;11.57;;;7.23;;
74170;SDS011;62526;50.948;6.590;2024-01-30T05:15:24;9.73;;;6.27;;
74170;SDS011;62526;50.948;6.590;2024-01-30T05:17:51;13.10;;;7.97;;
74170;SDS011;62526;50.948;6.590;2024-01-30T05:20:19;11.73;;;6.97;;
74170;SDS011;62526;50.948;6.590;2024-01-30T05:22:45;10.07;;;6.93;;
74170;SDS011;62526;50.948;6.590;2024-01-30T05:25:12;14.43;;;7.00;;
74170;SDS011;62526;50.948;6.590;2024-01-30T05:27:39;10.13;;;7.00;;
74170;SDS011;62526;50.948;6.590;2024-01-30T05:30:07;11.53;;;7.83;;
74170;SDS011;62526;50.948;6.590;2024-01-30T05:32:35;11.70;;;7.57;;
74170;SDS011;62526;50.948;6.590;2024-01-30T05:35:01;12.37;;;7.17;;
74170;SDS011;62526;50.948;6.590;2024-01-30T05:37:28;12.83;;;7.30;;
74170;SDS011;62526;50.948;6.590;2024-01-30T05:39:55;11.80;;;7.07;;
74170;SDS011;62526;50.948;6.590;2024-01-30T05:42:22;11.50;;;7.10;;
74170;SDS011;62526;50.948;6.590;2024-01-30T05:44:49;11.63;;;7.23;;
74170;SDS011;62526;50.948;6.590;2024-01-30T05:47:16;11.57;;;7.50;;
74170;SDS011;62526;50.948;6.590;2024-01-30T05:49:42;12.13;;;7.87;;
74170;SDS011;62526;50.948;6.590;2024-01-30T05:52:10;14.17;;;7.27;;
74170;SDS011;62526;50.948;6.590;2024-01-30T05:54:36;10.87;;;6.87;;
74170;SDS011;62526;50.948;6.590;2024-01-30T05:57:03;13.23;;;7.47;;
74170;SDS011;62526;50.948;6.590;2024-01-30T05:59:31;12.23;;;7.53;;
74170;SDS011;62526;50.948;6.590;2024-01-30T06:01:57;11.93;;;7.60;;
74170;SDS011;62526;50.948;6.590;2024-01-30T06:04:25;12.87;;;7.83;;
74170;SDS011;62526;50.948;6.590;2024-01-30T06:06:51;15.93;;;7.27;;
74170;SDS011;62526;50.948;6.590;2024-01-30T06:09:19;12.43;;;6.83;;
74170;SDS011;62526;50.948;6.590;2024-01-30T06:11:46;11.67;;;6.80;;
74170;SDS011;62526;50.948;6.590;2024-01-30T06:14:12;11.83;;;7.30;;
74170;SDS011;62526;50.948;6.590;2024-01-30T06:16:39;11.50;;;7.10;;
74170;SDS011;62526;50.948;6.590;2024-01-30T06:19:06;11.53;;;6.50;;
74170;SDS011;62526;50.948;6.590;2024-01-30T06:21:33;11.60;;;7.17;;
74170;SDS011;62526;50.948;6.590;2024-01-30T06:24:00;9.87;;;6.60;;
74170;SDS011;62526;50.948;6.590;2024-01-30T06:26:27;12.20;;;6.73;;
74170;SDS011;62526;50.948;6.590;2024-01-30T06:28:54;11.53;;;6.40;;
74170;SDS011;62526;50.948;6.590;2024-01-30T06:31:21;9.50;;;7.00;;
74170;SDS011;62526;50.948;6.590;2024-01-30T06:33:48;12.83;;;6.70;;
74170;SDS011;62526;50.948;6.590;2024-01-30T06:36:15;11.17;;;7.00;;
74170;SDS011;62526;50.948;6.590;2024-01-30T06:38:41;10.60;;;6.73;;
74170;SDS011;62526;50.948;6.590;2024-01-30T06:41:08;10.43;;;6.97;;
74170;SDS011;62526;50.948;6.590;2024-01-30T06:43:35;11.90;;;7.33;;
74170;SDS011;62526;50.948;6.590;2024-01-30T06:46:01;11.57;;;6.70;;
74170;SDS011;62526;50.948;6.590;2024-01-30T06:48:29;17.60;;;7.67;;
74170;SDS011;62526;50.948;6.590;2024-01-30T06:50:56;14.90;;;7.90;;
74170;SDS011;62526;50.948;6.590;2024-01-30T06:53:23;14.10;;;8.37;;
74170;SDS011;62526;50.948;6.590;2024-01-30T06:55:51;11.90;;;8.83;;
74170;SDS011;62526;50.948;6.590;2024-01-30T06:58:16;15.20;;;8.70;;
74170;SDS011;62526;50.948;6.590;2024-01-30T07:00:44;11.43;;;7.30;;
74170;SDS011;62526;50.948;6.590;2024-01-30T07:03:11;12.77;;;7.90;;
74170;SDS011;62526;50.948;6.590;2024-01-30T07:05:39;16.27;;;8.17;;
74170;SDS011;62526;50.948;6.590;2024-01-30T07:08:05;12.10;;;7.53;;
74170;SDS011;62526;50.948;6.590;2024-01-30T07:10:33;13.13;;;6.93;;
74170;SDS011;62526;50.948;6.590;2024-01-30T07:13:00;10.50;;;6.73;;
74170;SDS011;62526;50.948;6.590;2024-01-30T07:15:28;9.53;;;6.53;;
74170;SDS011;62526;50.948;6.590;2024-01-30T07:17:54;11.57;;;7.77;;
74170;SDS011;62526;50.948;6.590;2024-01-30T07:20:22;16.00;;;9.20;;
74170;SDS011;62526;50.948;6.590;2024-01-30T07:22:48;14.80;;;8.70;;
74170;SDS011;62526;50.948;6.590;2024-01-30T07:25:15;11.77;;;7.20;;
74170;SDS011;62526;50.948;6.590;2024-01-30T07:27:43;10.90;;;6.83;;
74170;SDS011;62526;50.948;6.590;2024-01-30T07:30:10;11.27;;;7.43;;
74170;SDS011;62526;50.948;6.590;2024-01-30T07:32:37;12.47;;;7.27;;
74170;SDS011;62526;50.948;6.590;2024-01-30T07:35:04;12.37;;;7.00;;
74170;SDS011;62526;50.948;6.590;2024-01-30T07:37:32;10.67;;;7.10;;
74170;SDS011;62526;50.948;6.590;2024-01-30T07:40:01;11.27;;;7.10;;
74170;SDS011;62526;50.948;6.590;2024-01-30T07:42:26;9.57;;;6.80;;
74170;SDS011;62526;50.948;6.590;2024-01-30T07:44:53;8.97;;;7.03;;
74170;SDS011;62526;50.948;6.590;2024-01-30T07:47:20;11.97;;;7.10;;
74170;SDS011;62526;50.948;6.590;2024-01-30T07:49:47;14.37;;;7.10;;
74170;SDS011;62526;50.948;6.590;2024-01-30T07:52:14;12.93;;;6.43;;
74170;SDS011;62526;50.948;6.590;2024-01-30T07:54:41;10.00;;;6.87;;
74170;SDS011;62526;50.948;6.590;2024-01-30T07:57:08;11.00;;;7.00;;
74170;SDS011;62526;50.948;6.590;2024-01-30T07:59:35;12.60;;;7.07;;
74170;SDS011;62526;50.948;6.590;2024-01-30T08:02:03;12.77;;;7.27;;
74170;SDS011;62526;50.948;6.590;2024-01-30T08:04:30;9.60;;;7.37;;
74170;SDS011;62526;50.948;6.590;2024-01-30T08:06:57;12.70;;;6.90;;
74170;SDS011;62526;50.948;6.590;2024-01-30T08:09:24;10.20;;;7.00;;
74170;SDS011;62526;50.948;6.590;2024-01-30T08:11:51;11.97;;;7.40;;
74170;SDS011;62526;50.948;6.590;2024-01-30T08:14:18;12.13;;;7.27;;
74170;SDS011;62526;50.948;6.590;2024-01-30T08:16:45;14.43;;;7.43;;
74170;SDS011;62526;50.948;6.590;2024-01-30T08:19:14;13.70;;;7.37;;
74170;SDS011;62526;50.948;6.590;2024-01-30T08:21:41;17.17;;;7.73;;
74170;SDS011;62526;50.948;6.590;2024-01-30T08:24:08;13.27;;;7.93;;
74170;SDS011;62526;50.948;6.590;2024-01-30T08:26:35;14.40;;;7.90;;
74170;SDS011;62526;50.948;6.590;2024-01-30T08:29:02;11.00;;;7.10;;
74170;SDS011;62526;50.948;6.590;2024-01-30T08:31:29;14.77;;;7.53;;
74170;SDS011;62526;50.948;6.590;2024-01-30T08:33:57;10.50;;;7.00;;
74170;SDS011;62526;50.948;6.590;2024-01-30T08:36:24;12.70;;;6.77;;
74170;SDS011;62526;50.948;6.590;2024-01-30T08:38:51;12.87;;;7.53;;
74170;SDS011;62526;50.948;6.590;2024-01-30T08:41:18;10.17;;;6.60;;
74170;SDS011;62526;50.948;6.590;2024-01-30T08:43:46;13.97;;;7.13;;
74170;SDS011;62526;50.948;6.590;2024-01-30T08:46:16;9.37;;;6.70;;
74170;SDS011;62526;50.948;6.590;2024-01-30T08:48:41;12.40;;;7.33;;
74170;SDS011;62526;50.948;6.590;2024-01-30T08:51:08;12.87;;;7.57;;
74170;SDS011;62526;50.948;6.590;2024-01-30T08:53:35;11.73;;;7.20;;
74170;SDS011;62526;50.948;6.590;2024-01-30T08:56:03;9.67;;;6.73;;
74170;SDS011;62526;50.948;6.590;2024-01-30T08:58:30;14.13;;;8.67;;
74170;SDS011;62526;50.948;6.590;2024-01-30T09:00:57;11.10;;;8.27;;
74170;SDS011;62526;50.948;6.590;2024-01-30T09:03:24;12.93;;;8.10;;
74170;SDS011;62526;50.948;6.590;2024-01-30T09:05:51;10.93;;;6.93;;
74170;SDS011;62526;50.948;6.590;2024-01-30T09:08:17;13.70;;;8.50;;
74170;SDS011;62526;50.948;6.590;2024-01-30T09:10:45;12.80;;;7.60;;
74170;SDS011;62526;50.948;6.590;2024-01-30T09:13:12;14.17;;;7.30;;
74170;SDS011;62526;50.948;6.590;2024-01-30T09:15:40;14.77;;;7.83;;
74170;SDS011;62526;50.948;6.590;2024-01-30T09:18:07;14.57;;;7.00;;
74170;SDS011;62526;50.948;6.590;2024-01-30T09:20:35;12.53;;;7.03;;
74170;SDS011;62526;50.948;6.590;2024-01-30T09:23:02;10.63;;;6.90;;
74170;SDS011;62526;50.948;6.590;2024-01-30T09:25:30;11.73;;;7.17;;
74170;SDS011;62526;50.948;6.590;2024-01-30T09:27:58;11.07;;;6.57;;
74170;SDS011;62526;50.948;6.590;2024-01-30T09:30:25;12.97;;;6.90;;
74170;SDS011;62526;50.948;6.590;2024-01-30T09:32:52;11.40;;;7.47;;
74170;SDS011;62526;50.948;6.590;2024-01-30T09:35:19;16.17;;;7.93;;
74170;SDS011;62526;50.948;6.590;2024-01-30T09:37:46;15.23;;;6.90;;
74170;SDS011;62526;50.948;6.590;2024-01-30T09:40:14;13.70;;;8.10;;
74170;SDS011;62526;50.948;6.590;2024-01-30T09:42:42;12.53;;;7.80;;
74170;SDS011;62526;50.948;6.590;2024-01-30T09:45:09;14.07;;;7.17;;
74170;SDS011;62526;50.948;6.590;2024-01-30T09:47:40;12.73;;;7.77;;
74170;SDS011;62526;50.948;6.590;2024-01-30T09:50:07;13.00;;;7.60;;
74170;SDS011;62526;50.948;6.590;2024-01-30T09:52:33;14.13;;;7.57;;
74170;SDS011;62526;50.948;6.590;2024-01-30T09:55:00;15.20;;;7.73;;
74170;SDS011;62526;50.948;6.590;2024-01-30T09:57:28;13.57;;;7.40;;
74170;SDS011;62526;50.948;6.590;2024-01-30T09:59:54;14.70;;;7.53;;
74170;SDS011;62526;50.948;6.590;2024-01-30T10:02:22;14.40;;;7.20;;
74170;SDS011;62526;50.948;6.590;2024-01-30T10:04:50;10.63;;;7.30;;
74170;SDS011;62526;50.948;6.590;2024-01-30T10:07:17;15.05;;;7.53;;
74170;SDS011;62526;50.948;6.590;2024-01-30T10:09:45;17.20;;;7.40;;
74170;SDS011;62526;50.948;6.590;2024-01-30T10:12:13;12.77;;;7.90;;
74170;SDS011;62526;50.948;6.590;2024-01-30T10:14:43;14.03;;;7.60;;
74170;SDS011;62526;50.948;6.590;2024-01-30T10:17:12;14.53;;;7.47;;
74170;SDS011;62526;50.948;6.590;2024-01-30T10:19:40;12.87;;;7.60;;
74170;SDS011;62526;50.948;6.590;2024-01-30T10:22:07;11.57;;;7.57;;
74170;SDS011;62526;50.948;6.590;2024-01-30T10:24:34;13.60;;;7.83;;
74170;SDS011;62526;50.948;6.590;2024-01-30T10:27:02;15.37;;;7.37;;
74170;SDS011;62526;50.948;6.590;2024-01-30T10:29:30;16.17;;;8.13;;
74170;SDS011;62526;50.948;6.590;2024-01-30T10:31:58;9.23;;;6.20;;
74170;SDS011;62526;50.948;6.590;2024-01-30T10:34:27;16.87;;;7.70;;
74170;SDS011;62526;50.948;6.590;2024-01-30T10:36:59;13.20;;;7.97;;
74170;SDS011;62526;50.948;6.590;2024-01-30T10:39:28;12.03;;;6.80;;
74170;SDS011;62526;50.948;6.590;2024-01-30T10:41:55;12.93;;;8.00;;
74170;SDS011;62526;50.948;6.590;2024-01-30T10:44:23;13.80;;;6.80;;
74170;SDS011;62526;50.948;6.590;2024-01-30T10:46:51;14.20;;;6.90;;
74170;SDS011;62526;50.948;6.590;2024-01-30T10:49:17;14.43;;;6.37;;
74170;SDS011;62526;50.948;6.590;2024-01-30T10:51:45;16.05;;;7.03;;
74170;SDS011;62526;50.948;6.590;2024-01-30T10:54:12;14.50;;;6.23;;
74170;SDS011;62526;50.948;6.590;2024-01-30T10:56:39;13.47;;;6.57;;
74170;SDS011;62526;50.948;6.590;2024-01-30T10:59:06;16.30;;;6.97;;
74170;SDS011;62526;50.948;6.590;2024-01-30T11:01:34;12.13;;;7.03;;
74170;SDS011;62526;50.948;6.590;2024-01-30T11:04:02;20.63;;;8.77;;
74170;SDS011;62526;50.948;6.590;2024-01-30T11:06:30;15.43;;;6.23;;
74170;SDS011;62526;50.948;6.590;2024-01-30T11:09:00;11.23;;;5.50;;
74170;SDS011;62526;50.948;6.590;2024-01-30T11:11:27;16.33;;;5.25;;
74170;SDS011;62526;50.948;6.590;2024-01-30T11:13:55;9.50;;;4.62;;
74170;SDS011;62526;50.948;6.590;2024-01-30T11:16:30;12.02;;;5.18;;
74170;SDS011;62526;50.948;6.590;2024-01-30T11:19:10;9.57;;;4.05;;
74170;SDS011;62526;50.948;6.590;2024-01-30T11:21:54;7.75;;;4.62;;
74170;SDS011;62526;50.948;6.590;2024-01-30T11:24:23;9.45;;;4.75;;
74170;SDS011;62526;50.948;6.590;2024-01-30T11:26:55;11.35;;;5.00;;
74170;SDS011;62526;50.948;6.590;2024-01-30T11:29:32;8.80;;;4.55;;
74170;SDS011;62526;50.948;6.590;2024-01-30T11:32:00;10.43;;;4.50;;
74170;SDS011;62526;50.948;6.590;2024-01-30T11:34:27;10.82;;;4.00;;
74170;SDS011;62526;50.948;6.590;2024-01-30T11:36:55;10.48;;;4.72;;
74170;SDS011;62526;50.948;6.590;2024-01-30T11:39:26;14.70;;;5.25;;
74170;SDS011;62526;50.948;6.590;2024-01-30T11:41:53;13.15;;;5.15;;
74170;SDS011;62526;50.948;6.590;2024-01-30T11:44:20;9.88;;;5.40;;
74170;SDS011;62526;50.948;6.590;2024-01-30T11:46:50;11.63;;;5.40;;
74170;SDS011;62526;50.948;6.590;2024-01-30T11:49:18;12.65;;;4.37;;
74170;SDS011;62526;50.948;6.590;2024-01-30T11:51:45;10.90;;;5.12;;
74170;SDS011;62526;50.948;6.590;2024-01-30T11:54:12;10.50;;;4.45;;
74170;SDS011;62526;50.948;6.590;2024-01-30T11:56:39;8.27;;;5.10;;
74170;SDS011;62526;50.948;6.590;2024-01-30T11:59:07;9.93;;;4.82;;
74170;SDS011;62526;50.948;6.590;2024-01-30T12:01:35;9.80;;;4.82;;
74170;SDS011;62526;50.948;6.590;2024-01-30T12:04:02;10.75;;;5.03;;
74170;SDS011;62526;50.948;6.590;2024-01-30T12:06:29;7.82;;;4.93;;
74170;SDS011;62526;50.948;6.590;2024-01-30T12:08:59;12.35;;;5.00;;
74170;SDS011;62526;50.948;6.590;2024-01-30T12:11:27;11.45;;;4.57;;
74170;SDS011;62526;50.948;6.590;2024-01-30T12:13:54;12.77;;;5.07;;
74170;SDS011;62526;50.948;6.590;2024-01-30T12:16:22;4.75;;;3.70;;
74170;SDS011;62526;50.948;6.590;2024-01-30T12:18:49;7.62;;;4.90;;
74170;SDS011;62526;50.948;6.590;2024-01-30T12:21:17;7.72;;;4.78;;
74170;SDS011;62526;50.948;6.590;2024-01-30T12:23:44;9.75;;;4.65;;
74170;SDS011;62526;50.948;6.590;2024-01-30T12:26:11;7.15;;;4.12;;
74170;SDS011;62526;50.948;6.590;2024-01-30T12:28:47;8.27;;;3.92;;
74170;SDS011;62526;50.948;6.590;2024-01-30T12:31:06;5.15;;;3.12;;
74170;SDS011;62526;50.948;6.590;2024-01-30T12:33:32;7.22;;;3.80;;
74170;SDS011;62526;50.948;6.590;2024-01-30T12:36:01;5.72;;;4.00;;
74170;SDS011;62526;50.948;6.590;2024-01-30T12:38:28;8.85;;;3.87;;
74170;SDS011;62526;50.948;6.590;2024-01-30T12:40:55;9.35;;;4.18;;
74170;SDS011;62526;50.948;6.590;2024-01-30T12:43:24;8.05;;;4.65;;
74170;SDS011;62526;50.948;6.590;2024-01-30T12:45:52;5.90;;;3.75;;
74170;SDS011;62526;50.948;6.590;2024-01-30T12:48:20;7.70;;;4.80;;
74170;SDS011;62526;50.948;6.590;2024-01-30T12:50:47;5.55;;;3.90;;
74170;SDS011;62526;50.948;6.590;2024-01-30T12:53:14;8.52;;;4.22;;
74170;SDS011;62526;50.948;6.590;2024-01-30T12:55:41;11.75;;;4.60;;
74170;SDS011;62526;50.948;6.590;2024-01-30T12:58:09;11.07;;;5.35;;
74170;SDS011;62526;50.948;6.590;2024-01-30T13:00:36;7.37;;;4.18;;
74170;SDS011;62526;50.948;6.590;2024-01-30T13:03:04;8.25;;;4.20;;
74170;SDS011;62526;50.948;6.590;2024-01-30T13:05:31;12.70;;;4.70;;
74170;SDS011;62526;50.948;6.590;2024-01-30T13:07:59;10.43;;;5.07;;
74170;SDS011;62526;50.948;6.590;2024-01-30T13:10:26;14.13;;;4.97;;
74170;SDS011;62526;50.948;6.590;2024-01-30T13:12:53;15.95;;;5.18;;
74170;SDS011;62526;50.948;6.590;2024-01-30T13:15:20;11.57;;;5.20;;
74170;SDS011;62526;50.948;6.590;2024-01-30T13:17:47;17.98;;;5.95;;
74170;SDS011;62526;50.948;6.590;2024-01-30T13:20:15;13.15;;;5.97;;
74170;SDS011;62526;50.948;6.590;2024-01-30T13:22:43;19.20;;;5.87;;
74170;SDS011;62526;50.948;6.590;2024-01-30T13:25:10;15.63;;;4.95;;
74170;SDS011;62526;50.948;6.590;2024-01-30T13:27:37;10.82;;;4.72;;
74170;SDS011;62526;50.948;6.590;2024-01-30T13:30:05;11.68;;;4.40;;
74170;SDS011;62526;50.948;6.590;2024-01-30T13:32:33;13.35;;;4.87;;
74170;SDS011;62526;50.948;6.590;2024-01-30T13:35:01;13.30;;;5.12;;
74170;SDS011;62526;50.948;6.590;2024-01-30T13:37:28;12.18;;;5.10;;
74170;SDS011;62526;50.948;6.590;2024-01-30T13:39:55;9.38;;;5.70;;
74170;SDS011;62526;50.948;6.590;2024-01-30T13:42:23;11.82;;;5.47;;
74170;SDS011;62526;50.948;6.590;2024-01-30T13:44:50;9.52;;;4.37;;
74170;SDS011;62526;50.948;6.590;2024-01-30T13:47:17;7.70;;;4.22;;
74170;SDS011;62526;50.948;6.590;2024-01-30T13:49:44;6.72;;;4.20;;
74170;SDS011;62526;50.948;6.590;2024-01-30T13:52:11;10.00;;;4.40;;
74170;SDS011;62526;50.948;6.590;2024-01-30T13:54:38;10.40;;;5.72;;
74170;SDS011;62526;50.948;6.590;2024-01-30T13:57:05;6.75;;;4.32;;
74170;SDS011;62526;50.948;6.590;2024-01-30T13:59:32;13.43;;;6.10;;
74170;SDS011;62526;50.948;6.590;2024-01-30T14:02:00;9.65;;;5.43;;
74170;SDS011;62526;50.948;6.590;2024-01-30T14:04:27;8.45;;;4.68;;
74170;SDS011;62526;50.948;6.590;2024-01-30T14:06:53;12.45;;;5.20;;
74170;SDS011;62526;50.948;6.590;2024-01-30T14:09:21;7.93;;;4.85;;
74170;SDS011;62526;50.948;6.590;2024-01-30T14:11:48;10.98;;;4.95;;
74170;SDS011;62526;50.948;6.590;2024-01-30T14:14:14;8.70;;;5.75;;
74170;SDS011;62526;50.948;6.590;2024-01-30T14:16:42;13.27;;;5.80;;
74170;SDS011;62526;50.948;6.590;2024-01-30T14:19:08;15.63;;;5.07;;
74170;SDS011;62526;50.948;6.590;2024-01-30T14:21:35;9.07;;;5.65;;
74170;SDS011;62526;50.948;6.590;2024-01-30T14:24:03;10.07;;;5.35;;
74170;SDS011;62526;50.948;6.590;2024-01-30T14:26:30;6.70;;;4.57;;
74170;SDS011;62526;50.948;6.590;2024-01-30T14:28:57;8.77;;;5.20;;
74170;SDS011;62526;50.948;6.590;2024-01-30T14:31:24;7.65;;;3.67;;
74170;SDS011;62526;50.948;6.590;2024-01-30T14:33:51;12.07;;;5.97;;
74170;SDS011;62526;50.948;6.590;2024-01-30T14:36:17;8.95;;;4.50;;